Time;durP1;ratioP1;P1;durP2;ratioP2;P2;SDS_P1;SDS_P2;PMS_P1;PMS_P2;Temp;Humidity;BMP_temperature;BMP_pressure;BME280_temperature;BME280_humidity;BME280_pressure;Samples;Min_cycle;Max_cycle;Signal;HPM_P1;HPM_P2
2022/09/24 00:00:52;;;;;;;3.30;2.65;;;17.60;57.90;;;;;;5090341;28;20226;-35
2022/09/24 00:03:24;;;;;;;3.58;2.63;;;17.70;58.00;;;;;;5085658;28;20202;-34
2022/09/24 00:05:55;;;;;;;3.80;2.58;;;17.70;58.00;;;;;;5070880;28;20199;-40
2022/09/24 00:08:26;;;;;;;2.67;2.47;;;17.80;58.00;;;;;;5071317;28;20210;-35
2022/09/24 00:10:57;;;;;;;3.38;2.60;;;17.80;58.00;;;;;;5070822;28;20580;-36
2022/09/24 00:13:28;;;;;;;3.15;2.40;;;17.80;58.00;;;;;;5071204;28;20194;-36
2022/09/24 00:16:05;;;;;;;3.15;2.38;;;17.90;58.60;;;;;;5071107;28;20194;-35
2022/09/24 00:18:36;;;;;;;3.05;2.65;;;17.90;58.00;;;;;;5071751;28;20195;-35
2022/09/24 00:21:18;;;;;;;3.63;2.78;;;17.90;57.90;;;;;;5090967;28;20226;-35
2022/09/24 00:23:52;;;;;;;3.72;2.78;;;18.00;57.90;;;;;;5091760;28;20198;-36
2022/09/24 00:29:11;;;;;;;2.90;2.50;;;18.10;57.80;;;;;;5090634;28;20573;-38
2022/09/24 00:31:44;;;;;;;2.92;2.70;;;18.10;57.80;;;;;;5090554;28;20209;-35
2022/09/24 00:34:15;;;;;;;2.80;2.50;;;18.20;57.90;;;;;;5083916;28;20191;-35
2022/09/24 00:36:45;;;;;;;2.63;2.42;;;18.20;57.90;;;;;;5078372;28;20553;-35
2022/09/24 00:39:17;;;;;;;3.80;2.67;;;18.20;57.90;;;;;;5097932;28;20684;-35
2022/09/24 00:41:48;;;;;;;3.47;3.03;;;18.20;58.00;;;;;;5110606;28;20859;-34
2022/09/24 00:44:53;;;;;;;3.13;2.80;;;18.30;58.10;;;;;;5110430;28;20186;-35
2022/09/24 00:47:38;;;;;;;3.47;2.80;;;18.30;58.30;;;;;;5105325;28;20667;-35
2022/09/24 00:50:25;;;;;;;3.25;2.50;;;18.40;58.40;;;;;;5070032;28;20218;-36
2022/09/24 00:53:00;;;;;;;2.83;2.53;;;18.50;58.60;;;;;;5072050;28;20199;-35
2022/09/24 00:55:31;;;;;;;4.10;2.40;;;18.50;58.40;;;;;;5090735;28;20189;-36
2022/09/24 00:58:04;;;;;;;3.17;2.80;;;18.50;58.20;;;;;;5090881;28;20209;-35
2022/09/24 01:00:35;;;;;;;3.20;2.50;;;18.60;58.30;;;;;;5090401;28;20287;-35
2022/09/24 01:03:10;;;;;;;3.10;2.78;;;18.60;58.30;;;;;;5090535;28;20194;-35
2022/09/24 01:05:41;;;;;;;3.83;2.97;;;18.70;58.30;;;;;;5090935;28;20732;-35
2022/09/24 01:08:14;;;;;;;2.45;2.25;;;18.70;58.40;;;;;;5090713;28;20193;-35
2022/09/24 01:10:56;;;;;;;3.17;2.53;;;18.70;58.30;;;;;;5090287;28;20708;-35
2022/09/24 01:13:44;;;;;;;2.75;2.45;;;18.70;58.30;;;;;;5090057;28;20197;-35
2022/09/24 01:16:22;;;;;;;3.45;2.50;;;18.80;58.40;;;;;;5087926;28;20654;-36
2022/09/24 01:19:00;;;;;;;2.92;2.60;;;18.80;58.40;;;;;;5078311;28;20655;-36
2022/09/24 01:21:37;;;;;;;2.53;2.33;;;18.80;58.40;;;;;;5090619;28;20221;-36
2022/09/24 01:24:48;;;;;;;2.95;2.35;;;18.90;58.40;;;;;;5090462;28;20194;-35
2022/09/24 01:27:21;;;;;;;3.53;2.90;;;18.90;58.40;;;;;;5070307;28;20204;-35
2022/09/24 01:30:04;;;;;;;4.07;2.83;;;19.00;58.20;;;;;;5090275;28;20210;-37
2022/09/24 01:32:38;;;;;;;3.97;2.55;;;19.00;58.20;;;;;;5090343;28;20198;-38
2022/09/24 01:35:17;;;;;;;4.13;2.80;;;19.00;58.10;;;;;;5088035;28;20191;-35
2022/09/24 01:37:51;;;;;;;3.70;2.90;;;19.10;58.10;;;;;;5090742;28;20660;-35
2022/09/24 01:40:25;;;;;;;3.50;2.33;;;19.10;58.20;;;;;;5089639;28;20233;-35
2022/09/24 01:42:58;;;;;;;4.40;2.72;;;19.10;58.10;;;;;;5089502;28;20197;-35
2022/09/24 01:45:33;;;;;;;3.47;2.40;;;19.10;58.10;;;;;;5089232;28;20295;-37
2022/09/24 01:48:05;;;;;;;4.00;2.95;;;19.20;58.10;;;;;;5089217;28;20193;-35
2022/09/24 01:50:41;;;;;;;3.53;2.63;;;19.20;58.00;;;;;;5092077;28;20233;-35
2022/09/24 01:53:18;;;;;;;2.97;2.60;;;19.20;58.00;;;;;;5092819;28;20197;-35
2022/09/24 01:55:52;;;;;;;4.63;2.90;;;19.30;58.10;;;;;;5092533;28;20190;-36
2022/09/24 01:58:29;;;;;;;2.58;2.28;;;19.30;58.10;;;;;;5093007;28;20193;-35
2022/09/24 02:01:09;;;;;;;3.38;2.55;;;19.30;58.00;;;;;;5092660;28;20233;-35
2022/09/24 02:03:44;;;;;;;3.65;2.80;;;19.30;57.90;;;;;;5085519;28;20202;-35
2022/09/24 02:06:19;;;;;;;2.88;2.58;;;19.40;57.90;;;;;;5086235;28;20280;-35
2022/09/24 02:08:50;;;;;;;2.53;2.30;;;19.40;57.80;;;;;;5092731;28;20190;-35
2022/09/24 02:11:23;;;;;;;4.13;2.97;;;19.50;57.90;;;;;;5092713;28;20662;-35
2022/09/24 02:13:59;;;;;;;2.65;2.45;;;19.40;57.80;;;;;;5093001;28;20205;-38
2022/09/24 02:16:36;;;;;;;3.00;2.50;;;19.50;57.70;;;;;;5092609;28;20193;-36
2022/09/24 02:19:11;;;;;;;2.75;2.53;;;19.50;57.70;;;;;;5092925;28;20194;-35
2022/09/24 02:21:43;;;;;;;3.35;2.63;;;19.60;57.70;;;;;;5074832;28;20905;-35
2022/09/24 02:24:16;;;;;;;2.88;2.47;;;19.50;57.60;;;;;;5072264;28;20205;-36
2022/09/24 02:26:48;;;;;;;3.80;2.72;;;19.60;57.70;;;;;;5072274;28;20242;-35
2022/09/24 02:29:19;;;;;;;2.40;2.20;;;19.60;57.60;;;;;;5072058;28;20215;-40
2022/09/24 02:31:54;;;;;;;3.85;2.80;;;19.70;57.70;;;;;;5072112;28;20724;-35
2022/09/24 02:34:29;;;;;;;3.67;2.80;;;19.60;57.50;;;;;;5071973;28;20206;-36
2022/09/24 02:37:02;;;;;;;3.10;2.42;;;19.70;57.50;;;;;;5071817;28;20214;-36
2022/09/24 02:39:32;;;;;;;2.83;2.47;;;19.70;57.40;;;;;;5072277;28;20226;-36
2022/09/24 02:42:04;;;;;;;3.63;2.70;;;19.80;57.40;;;;;;5072417;28;20226;-35
2022/09/24 02:44:35;;;;;;;3.40;2.47;;;19.80;57.40;;;;;;5072081;28;20609;-36
2022/09/24 02:47:09;;;;;;;4.18;2.60;;;19.80;57.40;;;;;;5071823;28;20195;-39
2022/09/24 02:49:39;;;;;;;3.25;2.80;;;19.80;57.40;;;;;;5074225;28;20567;-37
2022/09/24 02:52:10;;;;;;;2.58;2.30;;;19.90;57.40;;;;;;5090608;28;20194;-38
2022/09/24 02:54:41;;;;;;;3.08;2.22;;;19.90;57.40;;;;;;5091981;28;20205;-35
2022/09/24 02:57:12;;;;;;;2.42;2.20;;;19.90;57.40;;;;;;5091760;28;20190;-36
2022/09/24 02:59:43;;;;;;;3.33;2.58;;;20.00;57.30;;;;;;5091207;28;20218;-36
2022/09/24 03:02:16;;;;;;;3.65;2.55;;;20.00;57.90;;;;;;5091229;28;20244;-36
2022/09/24 03:04:46;;;;;;;3.35;2.70;;;20.00;57.20;;;;;;5074916;28;20202;-36
2022/09/24 03:07:17;;;;;;;3.78;2.65;;;20.10;57.10;;;;;;5090910;28;20198;-40
2022/09/24 03:09:48;;;;;;;3.45;2.78;;;20.10;57.00;;;;;;5091358;28;20218;-36
2022/09/24 03:12:18;;;;;;;2.83;2.63;;;20.10;57.00;;;;;;5089299;28;20194;-40
2022/09/24 03:14:49;;;;;;;3.05;2.70;;;20.20;57.00;;;;;;5091072;28;20198;-36
2022/09/24 03:17:22;;;;;;;3.70;2.72;;;20.20;57.00;;;;;;5091682;28;20201;-39
2022/09/24 03:19:52;;;;;;;3.03;2.22;;;20.20;56.90;;;;;;5092029;28;20221;-38
2022/09/24 03:22:23;;;;;;;3.42;2.58;;;20.20;56.90;;;;;;5071263;28;20253;-36
2022/09/24 03:24:54;;;;;;;3.33;2.65;;;20.20;56.80;;;;;;5071495;28;20195;-37
2022/09/24 03:27:25;;;;;;;3.40;2.63;;;20.20;56.90;;;;;;5071248;28;20261;-36
2022/09/24 03:32:59;;;;;;;2.90;2.55;;;20.30;56.90;;;;;;5009835;28;20200;-37
2022/09/24 03:35:29;;;;;;;2.63;2.38;;;20.30;56.90;;;;;;5028179;28;20274;-36
2022/09/24 03:38:00;;;;;;;2.50;2.30;;;20.30;56.90;;;;;;5058744;28;20551;-36
2022/09/24 03:40:31;;;;;;;3.05;2.47;;;20.30;56.90;;;;;;5090753;28;20222;-35
2022/09/24 03:43:02;;;;;;;2.53;2.25;;;20.30;56.90;;;;;;5090167;28;20205;-36
2022/09/24 03:45:32;;;;;;;3.08;2.50;;;20.30;56.80;;;;;;5090420;28;20190;-39
2022/09/24 03:48:06;;;;;;;2.65;2.45;;;20.30;56.80;;;;;;5091122;28;20277;-35
2022/09/24 03:50:38;;;;;;;2.67;2.47;;;20.40;56.80;;;;;;5089881;28;20272;-37
2022/09/24 03:53:09;;;;;;;4.55;2.50;;;20.30;56.70;;;;;;5090843;28;20202;-36
2022/09/24 03:55:45;;;;;;;2.50;2.28;;;20.40;56.70;;;;;;5090938;28;20202;-38
2022/09/24 03:58:16;;;;;;;2.60;2.40;;;20.30;56.60;;;;;;5090817;28;20251;-35
2022/09/24 04:00:47;;;;;;;3.63;2.90;;;20.30;56.60;;;;;;5090804;28;20222;-36
2022/09/24 04:03:20;;;;;;;3.72;2.60;;;20.30;56.60;;;;;;5086416;28;20202;-36
2022/09/24 04:05:51;;;;;;;4.80;2.78;;;20.40;56.70;;;;;;5074482;28;20194;-37
2022/09/24 04:08:23;;;;;;;3.33;2.55;;;20.40;56.70;;;;;;5089978;28;20259;-36
2022/09/24 04:10:54;;;;;;;2.75;2.53;;;20.30;56.70;;;;;;5089688;28;20214;-36
2022/09/24 04:13:24;;;;;;;3.28;2.28;;;20.30;56.70;;;;;;5089757;28;20194;-36
2022/09/24 04:15:55;;;;;;;3.33;2.72;;;20.40;56.80;;;;;;5089986;28;20194;-35
2022/09/24 04:18:28;;;;;;;3.15;2.60;;;20.40;57.10;;;;;;5090521;28;20190;-35
2022/09/24 04:21:01;;;;;;;2.50;2.28;;;20.30;56.70;;;;;;5084960;28;20654;-35
2022/09/24 04:23:32;;;;;;;2.45;2.25;;;20.30;56.70;;;;;;5069884;28;20679;-36
2022/09/24 04:26:03;;;;;;;3.92;2.85;;;20.40;57.40;;;;;;5069851;28;20195;-35
2022/09/24 04:28:34;;;;;;;2.78;2.50;;;20.30;56.60;;;;;;5074428;28;20199;-37
2022/09/24 04:31:04;;;;;;;3.95;2.70;;;20.30;56.70;;;;;;5070641;28;20607;-35
2022/09/24 04:33:37;;;;;;;2.97;2.08;;;20.40;56.70;;;;;;5078904;28;20190;-35
2022/09/24 04:36:08;;;;;;;2.60;2.40;;;20.30;56.60;;;;;;5071158;28;20662;-35
2022/09/24 04:38:38;;;;;;;2.88;2.58;;;20.30;56.60;;;;;;5070489;28;20581;-36
2022/09/24 04:41:11;;;;;;;2.60;2.40;;;20.30;56.60;;;;;;5070697;28;20223;-37
2022/09/24 04:43:42;;;;;;;2.30;2.10;;;20.30;56.70;;;;;;5070725;28;20253;-36
2022/09/24 04:46:13;;;;;;;2.70;2.25;;;20.30;56.70;;;;;;5085272;28;20194;-36
2022/09/24 04:48:45;;;;;;;2.95;2.30;;;20.30;56.60;;;;;;5070516;28;20662;-38
2022/09/24 04:51:18;;;;;;;3.03;2.42;;;20.30;56.60;;;;;;5071136;28;20199;-36
2022/09/24 04:53:49;;;;;;;2.90;2.30;;;20.30;56.60;;;;;;5090224;28;20230;-35
2022/09/24 04:56:20;;;;;;;2.75;2.40;;;20.30;56.60;;;;;;5090570;28;20252;-35
2022/09/24 04:58:53;;;;;;;2.53;2.33;;;20.30;56.60;;;;;;5080170;28;20210;-36
2022/09/24 05:01:24;;;;;;;3.08;2.42;;;20.30;56.60;;;;;;5075292;28;20218;-36
2022/09/24 05:03:57;;;;;;;2.70;2.50;;;20.30;56.60;;;;;;5081137;28;20865;-36
2022/09/24 05:06:28;;;;;;;2.45;2.20;;;20.20;56.50;;;;;;5089130;28;20202;-36
2022/09/24 05:08:59;;;;;;;3.10;2.40;;;20.30;56.60;;;;;;5089453;28;20198;-38
2022/09/24 05:11:30;;;;;;;2.42;2.22;;;20.20;56.60;;;;;;5083544;28;20194;-35
2022/09/24 05:14:00;;;;;;;2.58;2.35;;;20.20;56.60;;;;;;5072448;28;20729;-36
2022/09/24 05:16:31;;;;;;;2.40;2.20;;;20.20;56.50;;;;;;5075979;28;20187;-41
2022/09/24 05:19:04;;;;;;;2.92;2.58;;;20.20;56.50;;;;;;5089567;28;20194;-44
2022/09/24 05:21:35;;;;;;;3.63;2.85;;;20.20;56.50;;;;;;5090767;28;20635;-36
2022/09/24 05:24:06;;;;;;;3.03;2.40;;;20.20;56.50;;;;;;5093193;28;20193;-43
2022/09/24 05:29:23;;;;;;;2.75;2.42;;;20.20;56.50;;;;;;5090463;28;20780;-43
2022/09/24 05:31:54;;;;;;;3.72;2.50;;;20.10;56.40;;;;;;5084217;28;20670;-37
2022/09/24 05:34:27;;;;;;;4.43;2.67;;;20.10;57.00;;;;;;5081109;28;20206;-44
2022/09/24 05:36:57;;;;;;;3.38;2.75;;;20.10;56.40;;;;;;5084606;28;20197;-41
2022/09/24 05:39:29;;;;;;;2.95;2.65;;;20.10;56.50;;;;;;5093617;28;20595;-38
2022/09/24 05:41:59;;;;;;;2.92;2.67;;;20.00;56.40;;;;;;5093567;28;20218;-41
2022/09/24 05:44:30;;;;;;;2.90;2.60;;;20.10;56.50;;;;;;5093813;28;20194;-37
2022/09/24 05:47:01;;;;;;;3.08;2.35;;;20.00;56.40;;;;;;5094222;28;20834;-40
2022/09/24 05:49:33;;;;;;;4.20;2.80;;;20.00;56.40;;;;;;5093518;28;20229;-37
2022/09/24 05:52:04;;;;;;;5.25;3.08;;;20.00;56.90;;;;;;5093541;28;20191;-36
2022/09/24 05:54:35;;;;;;;4.93;3.38;;;20.00;57.20;;;;;;5093868;28;20196;-37
2022/09/24 05:57:06;;;;;;;4.85;2.80;;;20.10;57.60;;;;;;5093457;28;20226;-38
2022/09/24 05:59:37;;;;;;;3.50;2.83;;;20.10;57.70;;;;;;5093430;28;20593;-36
2022/09/24 06:02:07;;;;;;;3.28;2.85;;;20.10;57.70;;;;;;5092865;28;20226;-35
2022/09/24 06:04:40;;;;;;;4.68;3.50;;;20.10;57.90;;;;;;5077867;28;20195;-38
2022/09/24 06:07:10;;;;;;;3.10;2.80;;;20.10;58.00;;;;;;5077480;28;20199;-35
2022/09/24 06:09:41;;;;;;;4.30;3.20;;;20.10;57.90;;;;;;5073112;28;20222;-35
2022/09/24 06:12:12;;;;;;;3.47;2.97;;;20.00;57.70;;;;;;5083797;28;20194;-39
2022/09/24 06:14:43;;;;;;;3.95;3.10;;;20.00;57.70;;;;;;5093263;28;20251;-36
2022/09/24 06:17:14;;;;;;;6.85;3.53;;;20.00;57.70;;;;;;5093720;28;20194;-37
2022/09/24 06:19:47;;;;;;;3.67;2.80;;;20.00;57.60;;;;;;5094038;28;20220;-40
2022/09/24 06:22:19;;;;;;;4.20;3.15;;;20.00;57.60;;;;;;5092605;28;20217;-36
2022/09/24 06:24:50;;;;;;;4.47;2.97;;;20.00;57.50;;;;;;5094050;28;20202;-36
2022/09/24 06:27:20;;;;;;;4.03;3.08;;;20.00;57.40;;;;;;5093091;28;20190;-35
2022/09/24 06:29:51;;;;;;;3.67;3.30;;;20.00;57.40;;;;;;5093883;28;20285;-36
2022/09/24 06:32:22;;;;;;;3.50;3.20;;;19.90;57.30;;;;;;5093274;28;20224;-35
2022/09/24 06:34:54;;;;;;;3.42;3.13;;;19.90;57.30;;;;;;5074861;28;20203;-36
2022/09/24 06:37:25;;;;;;;3.78;3.35;;;19.90;57.30;;;;;;5083564;28;20646;-35
2022/09/24 06:39:56;;;;;;;3.50;2.80;;;19.80;57.20;;;;;;5093184;28;20221;-36
2022/09/24 06:42:26;;;;;;;3.33;3.03;;;19.80;57.20;;;;;;5093412;28;20232;-36
2022/09/24 06:44:57;;;;;;;3.70;3.20;;;19.80;57.20;;;;;;5092848;28;20194;-36
2022/09/24 06:47:29;;;;;;;4.32;3.40;;;19.70;57.10;;;;;;5093129;28;20621;-35
2022/09/24 06:50:01;;;;;;;3.65;3.20;;;19.70;57.10;;;;;;5092950;28;20229;-36
2022/09/24 06:52:33;;;;;;;4.20;3.35;;;19.70;57.10;;;;;;5092596;28;20198;-36
2022/09/24 06:55:03;;;;;;;3.03;2.75;;;19.70;57.00;;;;;;5092152;28;20198;-36
2022/09/24 06:57:34;;;;;;;4.03;3.03;;;19.70;57.10;;;;;;5092396;28;20197;-44
2022/09/24 07:00:05;;;;;;;3.60;3.20;;;19.60;56.90;;;;;;5091867;28;20681;-39
2022/09/24 07:02:36;;;;;;;3.42;3.13;;;19.60;56.90;;;;;;5092946;28;20802;-42
2022/09/24 07:05:09;;;;;;;4.07;3.42;;;19.60;56.90;;;;;;5072936;28;20203;-38
2022/09/24 07:07:40;;;;;;;3.22;2.92;;;19.50;56.90;;;;;;5086009;28;20833;-39
2022/09/24 07:10:12;;;;;;;3.47;3.03;;;19.50;56.90;;;;;;5072905;28;20225;-41
2022/09/24 07:12:44;;;;;;;3.85;3.17;;;19.50;56.90;;;;;;5083543;28;20194;-37
2022/09/24 07:15:15;;;;;;;3.92;3.35;;;19.50;56.90;;;;;;5093069;28;20565;-43
2022/09/24 07:17:46;;;;;;;3.65;3.35;;;19.40;56.90;;;;;;5092846;28;20194;-39
2022/09/24 07:20:19;;;;;;;3.88;3.42;;;19.40;56.90;;;;;;5091893;28;20246;-41
2022/09/24 07:22:49;;;;;;;3.50;3.20;;;19.40;56.90;;;;;;5092002;28;20233;-46
2022/09/24 07:25:20;;;;;;;3.40;3.10;;;19.40;56.90;;;;;;5091706;28;20549;-36
2022/09/24 07:27:51;;;;;;;3.67;3.33;;;19.40;56.80;;;;;;5085393;28;20571;-39
2022/09/24 07:30:22;;;;;;;4.13;3.60;;;19.40;56.80;;;;;;5092386;28;20712;-35
2022/09/24 07:32:57;;;;;;;3.40;3.10;;;19.30;56.70;;;;;;5091369;28;20190;-36
2022/09/24 07:35:32;;;;;;;4.43;3.50;;;19.30;56.80;;;;;;5072512;28;20218;-36
2022/09/24 07:38:04;;;;;;;3.70;3.30;;;19.30;56.70;;;;;;5084477;28;20205;-41
2022/09/24 07:40:35;;;;;;;4.22;3.50;;;19.30;56.80;;;;;;5092262;28;20218;-38
2022/09/24 07:43:12;;;;;;;4.22;3.63;;;19.20;56.80;;;;;;5091634;28;20214;-36
2022/09/24 07:45:44;;;;;;;4.68;4.10;;;19.20;56.70;;;;;;5091639;28;20205;-36
2022/09/24 07:48:14;;;;;;;4.70;4.15;;;19.20;56.90;;;;;;5092026;28;20233;-37
2022/09/24 07:50:47;;;;;;;5.10;3.97;;;19.20;57.00;;;;;;5091772;28;20226;-38
2022/09/24 07:53:18;;;;;;;5.35;3.92;;;19.20;57.00;;;;;;5092041;28;20194;-36
2022/09/24 07:55:48;;;;;;;4.10;3.70;;;19.30;57.00;;;;;;5091140;28;20201;-35
2022/09/24 07:58:19;;;;;;;5.95;3.83;;;19.20;56.90;;;;;;5092086;28;20194;-36
2022/09/24 08:00:50;;;;;;;4.10;3.80;;;19.20;56.90;;;;;;5091879;28;20225;-37
2022/09/24 08:03:20;;;;;;;4.47;4.07;;;19.20;56.90;;;;;;5087142;28;20232;-35
2022/09/24 08:05:56;;;;;;;5.78;4.43;;;19.20;56.90;;;;;;5074946;28;20190;-36
2022/09/24 08:08:27;;;;;;;5.50;4.40;;;19.10;56.80;;;;;;5091685;28;20190;-37
2022/09/24 08:10:57;;;;;;;4.32;3.90;;;19.10;56.80;;;;;;5092247;28;20301;-36
2022/09/24 08:13:28;;;;;;;4.40;4.00;;;19.10;56.90;;;;;;5091326;28;20265;-36
2022/09/24 08:16:00;;;;;;;4.30;3.95;;;19.10;56.90;;;;;;5091667;28;20272;-37
2022/09/24 08:18:32;;;;;;;4.85;4.38;;;19.00;56.80;;;;;;5091280;28;20190;-39
2022/09/24 08:21:08;;;;;;;4.75;4.20;;;19.00;56.90;;;;;;5090620;28;20719;-39
2022/09/24 08:23:39;;;;;;;4.55;4.15;;;19.00;56.80;;;;;;5091136;28;20217;-40
2022/09/24 08:26:10;;;;;;;4.95;4.10;;;19.00;56.80;;;;;;5099370;28;20653;-43
2022/09/24 08:28:40;;;;;;;4.82;4.38;;;19.00;56.80;;;;;;5112010;28;20190;-36
2022/09/24 08:31:14;;;;;;;7.13;4.40;;;19.00;56.80;;;;;;5110804;28;20598;-35
2022/09/24 08:33:45;;;;;;;5.00;4.22;;;18.90;56.70;;;;;;5094221;28;20210;-36
2022/09/24 08:36:17;;;;;;;4.63;4.22;;;18.90;56.70;;;;;;5070434;28;20285;-36
2022/09/24 08:38:48;;;;;;;4.32;3.92;;;18.90;56.70;;;;;;5069541;28;20210;-36
2022/09/24 08:41:34;;;;;;;5.05;4.50;;;18.90;56.70;;;;;;5069420;28;20187;-39
2022/09/24 08:44:09;;;;;;;4.78;4.38;;;18.80;56.70;;;;;;5069707;28;20222;-35
2022/09/24 08:49:40;;;;;;;4.88;4.38;;;18.80;56.70;;;;;;5069753;28;20636;-35
2022/09/24 08:52:21;;;;;;;4.75;4.22;;;18.70;56.70;;;;;;5069981;28;20206;-38
2022/09/24 08:54:54;;;;;;;5.45;4.05;;;18.70;56.70;;;;;;5070047;28;20199;-37
2022/09/24 08:57:26;;;;;;;4.72;4.32;;;18.70;56.70;;;;;;5080969;28;20557;-40
2022/09/24 08:59:57;;;;;;;5.22;4.70;;;18.70;56.70;;;;;;5089819;28;20209;-36
2022/09/24 09:02:42;;;;;;;4.57;4.18;;;18.70;56.70;;;;;;5089773;28;20225;-36
2022/09/24 09:05:23;;;;;;;4.40;4.00;;;18.70;56.70;;;;;;5072213;28;20194;-34
2022/09/24 09:08:02;;;;;;;4.60;4.18;;;18.70;56.70;;;;;;5069760;28;20194;-35
2022/09/24 09:10:36;;;;;;;5.05;4.60;;;18.70;56.70;;;;;;5069371;28;20215;-36
2022/09/24 09:13:15;;;;;;;4.43;4.03;;;18.60;56.70;;;;;;5085981;28;20204;-39
2022/09/24 09:15:49;;;;;;;4.60;4.20;;;18.60;56.70;;;;;;5089524;28;20194;-35
2022/09/24 09:18:27;;;;;;;5.22;4.72;;;18.60;56.70;;;;;;5089791;28;20605;-35
2022/09/24 09:21:05;;;;;;;4.82;4.43;;;18.50;56.80;;;;;;5089867;28;20218;-35
2022/09/24 09:23:45;;;;;;;4.43;4.03;;;18.50;56.80;;;;;;5089180;28;20229;-36
2022/09/24 09:26:21;;;;;;;5.10;4.60;;;18.50;56.80;;;;;;5087616;28;20190;-35
2022/09/24 09:28:52;;;;;;;4.70;4.20;;;18.50;56.80;;;;;;5089600;28;20251;-35
2022/09/24 09:31:34;;;;;;;4.30;4.00;;;18.50;56.80;;;;;;5089841;28;20202;-35
2022/09/24 09:34:28;;;;;;;4.45;4.03;;;18.50;56.80;;;;;;5078475;28;20206;-36
2022/09/24 09:37:14;;;;;;;4.90;4.50;;;18.50;56.70;;;;;;5071859;28;20274;-35
2022/09/24 09:39:54;;;;;;;4.90;4.50;;;18.50;56.70;;;;;;5069490;28;20690;-34
2022/09/24 09:42:30;;;;;;;4.50;4.10;;;18.40;56.70;;;;;;5078096;28;20241;-35
2022/09/24 09:45:04;;;;;;;4.82;4.40;;;18.40;56.70;;;;;;5089090;28;20598;-37
2022/09/24 09:47:42;;;;;;;4.60;4.20;;;18.40;56.80;;;;;;5088860;28;20247;-35
2022/09/24 09:50:22;;;;;;;4.65;4.25;;;18.40;56.80;;;;;;5088740;28;20233;-38
2022/09/24 09:52:53;;;;;;;4.72;4.15;;;18.30;56.80;;;;;;5088795;28;20194;-35
2022/09/24 09:55:28;;;;;;;4.75;4.35;;;18.30;56.80;;;;;;5088832;28;20186;-36
2022/09/24 09:58:19;;;;;;;4.60;4.20;;;18.30;56.90;;;;;;5074916;28;20201;-39
2022/09/24 10:00:50;;;;;;;4.32;4.00;;;18.30;56.90;;;;;;5069154;28;20222;-38
2022/09/24 10:03:47;;;;;;;4.60;4.20;;;18.30;56.80;;;;;;5068693;28;20273;-36
2022/09/24 10:06:26;;;;;;;4.43;3.83;;;18.30;56.80;;;;;;5068728;28;20203;-39
2022/09/24 10:09:08;;;;;;;4.13;3.75;;;18.30;56.80;;;;;;5068633;28;20639;-40
2022/09/24 10:11:41;;;;;;;5.28;4.43;;;18.30;56.80;;;;;;5071930;28;20226;-35
2022/09/24 10:14:14;;;;;;;5.18;4.45;;;18.30;56.80;;;;;;5072606;28;20199;-36
2022/09/24 10:16:46;;;;;;;4.70;4.30;;;18.20;56.80;;;;;;5072717;28;20217;-38
2022/09/24 10:19:24;;;;;;;5.00;4.53;;;18.20;56.80;;;;;;5072398;28;20219;-38
2022/09/24 10:21:58;;;;;;;4.95;4.55;;;18.20;56.90;;;;;;5074573;28;20198;-45
2022/09/24 10:24:30;;;;;;;4.70;4.28;;;18.20;56.90;;;;;;5074655;28;20292;-39
2022/09/24 10:27:11;;;;;;;5.07;4.68;;;18.10;56.90;;;;;;5077119;28;20195;-46
2022/09/24 10:32:40;;;;;;;6.07;4.30;;;18.10;57.00;;;;;;5050752;28;20269;-36
2022/09/24 10:35:25;;;;;;;4.50;4.13;;;18.10;56.90;;;;;;5063574;28;20206;-47
2022/09/24 10:37:56;;;;;;;5.28;4.78;;;18.10;56.90;;;;;;5089649;28;20194;-36
2022/09/24 10:40:29;;;;;;;4.80;4.40;;;18.10;56.90;;;;;;5081896;28;20713;-41
2022/09/24 10:43:06;;;;;;;4.90;4.45;;;18.10;56.90;;;;;;5106812;28;20217;-38
2022/09/24 10:46:00;;;;;;;4.88;4.47;;;18.10;56.90;;;;;;5113942;28;20193;-38
2022/09/24 10:48:37;;;;;;;4.70;4.30;;;18.10;56.90;;;;;;5084596;28;20256;-40
2022/09/24 10:51:22;;;;;;;4.55;4.15;;;18.00;56.90;;;;;;5074425;28;20214;-35
2022/09/24 10:54:06;;;;;;;4.57;4.18;;;18.00;57.00;;;;;;5092764;28;20198;-36
2022/09/24 10:56:39;;;;;;;4.50;4.10;;;18.00;57.00;;;;;;5093558;28;20194;-35
2022/09/24 10:59:31;;;;;;;4.63;4.22;;;18.00;57.00;;;;;;5080067;28;20600;-40
2022/09/24 11:02:21;;;;;;;4.55;4.15;;;18.00;57.00;;;;;;5081060;28;20585;-35
2022/09/24 11:04:56;;;;;;;4.97;4.47;;;17.90;57.00;;;;;;5074605;28;20226;-35
2022/09/24 11:07:51;;;;;;;4.70;4.30;;;17.90;57.00;;;;;;5082109;28;20198;-42
2022/09/24 11:10:34;;;;;;;4.72;4.32;;;17.90;56.90;;;;;;5071946;28;20223;-37
2022/09/24 11:13:14;;;;;;;4.78;4.30;;;17.90;56.90;;;;;;5088326;28;20305;-36
2022/09/24 11:16:05;;;;;;;4.88;4.38;;;17.90;56.90;;;;;;5091433;28;20198;-36
2022/09/24 11:18:48;;;;;;;4.90;4.40;;;17.90;56.90;;;;;;5113083;28;20566;-37
2022/09/24 11:21:35;;;;;;;4.65;4.20;;;17.90;56.90;;;;;;5112743;28;20189;-45
2022/09/24 11:24:22;;;;;;;4.50;4.10;;;17.90;56.90;;;;;;5092511;28;20218;-39
2022/09/24 11:27:05;;;;;;;4.47;4.05;;;17.80;56.90;;;;;;5097114;28;20201;-36
2022/09/24 11:29:57;;;;;;;4.72;4.32;;;17.80;56.90;;;;;;5100236;28;20213;-38
2022/09/24 11:32:37;;;;;;;4.90;4.50;;;17.80;57.00;;;;;;5081867;28;20654;-38
2022/09/24 11:35:30;;;;;;;4.80;4.28;;;17.80;57.00;;;;;;5072878;28;20209;-40
2022/09/24 11:38:07;;;;;;;4.68;4.18;;;17.80;57.00;;;;;;5086659;28;20205;-39
2022/09/24 11:41:01;;;;;;;4.68;4.28;;;17.80;56.90;;;;;;5092188;28;20220;-36
2022/09/24 11:43:59;;;;;;;4.65;4.25;;;17.80;57.00;;;;;;5091012;28;20222;-37
2022/09/24 11:46:47;;;;;;;4.82;4.32;;;17.80;56.90;;;;;;5091976;28;20669;-39
2022/09/24 11:49:53;;;;;;;4.88;4.47;;;17.70;56.90;;;;;;5091955;28;20237;-35
2022/09/24 11:52:33;;;;;;;3.92;3.63;;;17.70;56.90;;;;;;5091874;28;20186;-40
2022/09/24 11:55:17;;;;;;;4.45;4.05;;;17.70;56.90;;;;;;5091794;28;20243;-36
2022/09/24 11:57:52;;;;;;;4.72;4.32;;;17.70;56.90;;;;;;5091187;28;20650;-36
2022/09/24 12:00:23;;;;;;;5.47;4.75;;;17.70;57.00;;;;;;5090406;28;20209;-35
2022/09/24 12:02:58;;;;;;;4.38;3.97;;;17.60;57.00;;;;;;5090100;28;20193;-41
2022/09/24 12:05:36;;;;;;;4.47;4.07;;;17.60;57.00;;;;;;5071005;28;20202;-35
2022/09/24 12:08:14;;;;;;;4.95;4.43;;;17.60;57.00;;;;;;5085009;28;20189;-37
2022/09/24 12:10:48;;;;;;;4.13;3.80;;;17.60;56.90;;;;;;5091005;28;20222;-35
2022/09/24 12:13:24;;;;;;;4.65;4.25;;;17.60;56.90;;;;;;5091952;28;20187;-35
2022/09/24 12:15:58;;;;;;;4.40;4.00;;;17.60;56.90;;;;;;5089934;28;20212;-35
2022/09/24 12:18:31;;;;;;;3.92;3.63;;;17.60;56.90;;;;;;5087123;28;20194;-39
2022/09/24 12:21:10;;;;;;;4.80;4.40;;;17.60;56.90;;;;;;5091525;28;20226;-35
2022/09/24 12:23:43;;;;;;;4.72;4.32;;;17.60;56.90;;;;;;5091527;28;20228;-35
2022/09/24 12:26:17;;;;;;;4.20;3.80;;;17.60;56.90;;;;;;5090852;28;20622;-35
2022/09/24 12:34:46;;;;;;;5.38;4.88;;;17.50;56.90;;;;;;5075210;28;20784;-37
2022/09/24 12:37:22;;;;;;;3.97;3.67;;;17.50;56.90;;;;;;5069787;28;20194;-36
2022/09/24 12:40:01;;;;;;;4.53;4.13;;;17.50;56.90;;;;;;5069662;28;20241;-36
2022/09/24 12:42:36;;;;;;;4.43;3.85;;;17.50;56.90;;;;;;5069898;28;20569;-39
2022/09/24 12:45:13;;;;;;;4.50;4.10;;;17.50;56.90;;;;;;5069011;28;20588;-35
2022/09/24 12:47:52;;;;;;;4.32;4.03;;;17.40;56.80;;;;;;5069284;28;20212;-35
2022/09/24 12:50:26;;;;;;;4.28;3.88;;;17.40;56.80;;;;;;5068745;28;20229;-35
2022/09/24 12:53:02;;;;;;;4.03;3.72;;;17.40;56.80;;;;;;5069083;28;20198;-36
2022/09/24 12:55:36;;;;;;;3.95;3.65;;;17.40;56.80;;;;;;5070037;28;20198;-39
2022/09/24 12:58:08;;;;;;;4.28;3.88;;;17.40;56.90;;;;;;5069638;28;20195;-35
2022/09/24 13:00:44;;;;;;;4.75;4.35;;;17.40;56.90;;;;;;5069899;28;20225;-35
2022/09/24 13:03:35;;;;;;;4.72;4.20;;;17.30;56.90;;;;;;5069908;28;20201;-35
2022/09/24 13:06:20;;;;;;;4.57;4.18;;;17.30;56.90;;;;;;5077488;28;20230;-34
2022/09/24 13:08:52;;;;;;;4.32;3.92;;;17.30;57.00;;;;;;5089852;28;20717;-36
2022/09/24 13:11:35;;;;;;;4.30;3.90;;;17.30;56.90;;;;;;5089842;28;20198;-35
2022/09/24 13:14:22;;;;;;;3.90;3.58;;;17.30;56.90;;;;;;5084061;28;20199;-35
2022/09/24 13:16:57;;;;;;;4.10;3.70;;;17.30;56.90;;;;;;5069679;28;20255;-38
2022/09/24 13:19:36;;;;;;;4.28;3.88;;;17.30;56.80;;;;;;5069572;28;20214;-37
2022/09/24 13:22:07;;;;;;;4.18;3.78;;;17.20;56.80;;;;;;5087130;28;20194;-35
2022/09/24 13:24:50;;;;;;;3.70;3.40;;;17.20;56.80;;;;;;5086681;28;20214;-35
2022/09/24 13:27:25;;;;;;;3.95;3.63;;;17.20;56.90;;;;;;5089215;28;20664;-36
2022/09/24 13:30:19;;;;;;;4.15;3.85;;;17.20;56.80;;;;;;5088546;28;20218;-35
2022/09/24 13:32:57;;;;;;;3.83;3.53;;;17.10;56.80;;;;;;5089273;28;20198;-35
2022/09/24 13:35:31;;;;;;;4.63;4.22;;;17.10;56.80;;;;;;5088839;28;20251;-35
2022/09/24 13:38:19;;;;;;;4.38;3.97;;;17.10;56.80;;;;;;5089554;28;20205;-35
2022/09/24 13:41:00;;;;;;;4.03;3.70;;;17.10;56.90;;;;;;5089290;28;20697;-35
2022/09/24 13:43:41;;;;;;;4.10;3.80;;;17.10;56.90;;;;;;5088437;28;20190;-35
2022/09/24 13:46:17;;;;;;;4.50;4.10;;;17.10;56.90;;;;;;5073113;28;20190;-36
2022/09/24 13:48:53;;;;;;;4.28;3.90;;;17.10;56.80;;;;;;5072826;28;20202;-35